createdAt,value
2018-11-26T00:00:35.982Z,99481.80
2018-11-26T00:03:10.112Z,99467.30
2018-11-26T00:05:42.747Z,99477.97
2018-11-26T00:08:21.483Z,99469.69
2018-11-26T00:12:00.322Z,99476.05
2018-11-26T00:14:32.889Z,99478.43
2018-11-26T00:17:05.531Z,99463.75
2018-11-26T00:19:38.148Z,99466.63
2018-11-26T00:22:10.781Z,99456.02
2018-11-26T00:24:43.384Z,99463.30
2018-11-26T00:27:16.080Z,99459.13
2018-11-26T00:29:48.670Z,99460.27
2018-11-26T00:32:21.268Z,99463.75
2018-11-26T00:34:53.862Z,99463.62
2018-11-26T00:37:26.479Z,99463.97
2018-11-26T00:39:59.250Z,99456.59
2018-11-26T00:42:31.881Z,99453.66
2018-11-26T00:45:05.090Z,99467.09
2018-11-26T00:47:37.685Z,99459.59
2018-11-26T00:50:10.470Z,99458.83
2018-11-26T00:52:43.055Z,99452.31
2018-11-26T00:55:15.724Z,99460.17
2018-11-26T00:57:48.516Z,99454.55
2018-11-26T01:00:21.184Z,99456.13
2018-11-26T01:02:53.827Z,99450.30
2018-11-26T01:05:35.365Z,99446.93
2018-11-26T01:08:08.097Z,99438.95
2018-11-26T01:10:40.739Z,99432.13
2018-11-26T01:13:13.337Z,99429.68
2018-11-26T01:15:46.716Z,99443.56
2018-11-26T01:18:19.284Z,99440.31
2018-11-26T01:20:51.851Z,99437.86
2018-11-26T01:23:24.454Z,99450.44
2018-11-26T01:25:57.107Z,99442.22
2018-11-26T01:28:29.668Z,99437.29
2018-11-26T01:31:02.293Z,99438.77
2018-11-26T01:33:34.993Z,99432.80
2018-11-26T01:36:07.626Z,99437.63
2018-11-26T01:38:40.238Z,99437.75
2018-11-26T01:41:12.883Z,99430.69
2018-11-26T01:43:45.545Z,99424.63
2018-11-26T01:46:18.161Z,99420.03
2018-11-26T01:48:51.332Z,99426.52
2018-11-26T01:51:23.926Z,99429.22
2018-11-26T01:53:56.516Z,99430.13
2018-11-26T01:56:29.131Z,99427.89
2018-11-26T01:59:01.691Z,99429.02
2018-11-26T02:01:34.316Z,99434.64
2018-11-26T02:04:06.872Z,99434.73
2018-11-26T02:06:39.481Z,99429.35
2018-11-26T02:09:12.043Z,99426.56
2018-11-26T02:11:44.671Z,99433.27
2018-11-26T02:14:17.273Z,99430.48
2018-11-26T02:16:50.043Z,99434.18
2018-11-26T02:19:22.654Z,99426.45
2018-11-26T02:21:55.353Z,99425.86
2018-11-26T02:24:27.891Z,99424.97
2018-11-26T02:27:00.474Z,99426.32
2018-11-26T02:29:33.099Z,99424.21
2018-11-26T02:32:05.785Z,99423.76
2018-11-26T02:34:38.322Z,99428.34
2018-11-26T02:37:10.981Z,99428.33
2018-11-26T02:39:43.540Z,99428.23
2018-11-26T02:42:16.180Z,99430.13
2018-11-26T02:44:48.754Z,99427.77
2018-11-26T02:47:21.310Z,99429.48
2018-11-26T02:49:53.956Z,99423.06
2018-11-26T02:52:26.559Z,99422.75
2018-11-26T02:54:59.150Z,99420.72
2018-11-26T02:57:31.713Z,99409.52
2018-11-26T03:00:06.230Z,99416.81
2018-11-26T03:02:38.856Z,99412.55
2018-11-26T03:05:12.386Z,99415.09
2018-11-26T03:07:45.107Z,99417.36
2018-11-26T03:10:17.707Z,99416.25
2018-11-26T03:12:50.353Z,99416.46
2018-11-26T03:15:22.993Z,99410.31
2018-11-26T03:17:55.583Z,99413.42
2018-11-26T03:20:28.149Z,99413.31
2018-11-26T03:23:00.690Z,99409.06
2018-11-26T03:25:33.338Z,99408.83
2018-11-26T03:28:06.977Z,99406.70
2018-11-26T03:30:39.539Z,99410.41
2018-11-26T03:33:12.136Z,99412.09
2018-11-26T03:35:44.730Z,99409.27
2018-11-26T03:38:27.342Z,99416.34
2018-11-26T03:40:59.879Z,99414.11
2018-11-26T03:43:32.456Z,99418.83
2018-11-26T03:46:05.188Z,99422.52
2018-11-26T03:48:37.827Z,99414.20
2018-11-26T03:51:10.435Z,99416.25
2018-11-26T03:53:43.055Z,99418.25
2018-11-26T03:56:15.674Z,99414.45
2018-11-26T03:58:48.286Z,99419.73
2018-11-26T04:01:20.795Z,99417.05
2018-11-26T04:03:53.382Z,99417.59
2018-11-26T04:06:25.997Z,99421.18
2018-11-26T04:08:58.552Z,99422.09
2018-11-26T04:11:31.173Z,99425.12
2018-11-26T04:14:03.819Z,99422.85
2018-11-26T04:16:36.438Z,99417.70
2018-11-26T04:19:09.008Z,99418.70
2018-11-26T04:21:41.565Z,99413.55
2018-11-26T04:24:14.139Z,99412.88
2018-11-26T04:26:46.777Z,99422.09
2018-11-26T04:29:19.411Z,99418.94
2018-11-26T04:31:52.015Z,99416.46
2018-11-26T04:34:24.690Z,99416.01
2018-11-26T04:36:57.391Z,99422.30
2018-11-26T04:39:30.027Z,99415.36
2018-11-26T04:42:02.566Z,99419.83
2018-11-26T04:44:35.210Z,99402.79
2018-11-26T04:47:07.880Z,99400.09
2018-11-26T04:49:40.509Z,99410.75
2018-11-26T04:52:13.106Z,99418.16
2018-11-26T04:54:45.715Z,99418.15
2018-11-26T04:57:18.365Z,99407.48
2018-11-26T04:59:50.950Z,99417.05
2018-11-26T05:02:24.217Z,99413.33
2018-11-26T05:04:56.765Z,99414.02
2018-11-26T05:07:29.432Z,99417.16
2018-11-26T05:10:02.118Z,99416.46
2018-11-26T05:12:34.732Z,99417.38
2018-11-26T05:15:10.726Z,99421.20
2018-11-26T05:17:43.304Z,99424.78
2018-11-26T05:20:15.888Z,99427.03
2018-11-26T05:22:48.504Z,99425.55
2018-11-26T05:25:21.068Z,99430.81
2018-11-26T05:27:54.404Z,99432.61
2018-11-26T05:30:27.007Z,99424.08
2018-11-26T05:32:59.575Z,99420.63
2018-11-26T05:35:32.145Z,99426.58
2018-11-26T05:38:04.979Z,99418.15
2018-11-26T05:40:37.742Z,99414.20
2018-11-26T05:43:10.340Z,99423.19
2018-11-26T05:45:42.885Z,99429.71
2018-11-26T05:48:15.583Z,99429.02
2018-11-26T05:50:48.149Z,99430.81
2018-11-26T05:53:20.707Z,99433.05
2018-11-26T05:55:53.341Z,99427.02
2018-11-26T05:58:26.007Z,99427.34
2018-11-26T06:00:58.615Z,99436.87
2018-11-26T06:03:31.243Z,99422.96
2018-11-26T06:06:04.133Z,99434.18
2018-11-26T06:08:36.798Z,99441.80
2018-11-26T06:11:09.386Z,99443.36
2018-11-26T06:13:41.927Z,99444.73
2018-11-26T06:16:14.617Z,99452.81
2018-11-26T06:18:47.208Z,99453.83
2018-11-26T06:21:19.826Z,99453.23
2018-11-26T06:23:52.500Z,99448.75
2018-11-26T06:26:25.115Z,99453.23
2018-11-26T06:28:57.808Z,99447.73
2018-11-26T06:31:30.454Z,99454.59
2018-11-26T06:34:03.074Z,99459.06
2018-11-26T06:36:35.705Z,99457.36
2018-11-26T06:39:10.571Z,99450.75
2018-11-26T06:41:43.136Z,99455.00
2018-11-26T06:44:15.742Z,99453.13
2018-11-26T06:46:48.341Z,99457.14
2018-11-26T06:49:20.916Z,99465.55
2018-11-26T06:51:53.469Z,99468.73
2018-11-26T06:54:26.162Z,99462.74
2018-11-26T06:56:58.736Z,99468.65
2018-11-26T06:59:31.345Z,99472.13
2018-11-26T07:02:03.976Z,99482.10
2018-11-26T07:04:36.660Z,99477.61
2018-11-26T07:07:09.274Z,99485.34
2018-11-26T07:09:41.867Z,99472.93
2018-11-26T07:12:14.498Z,99491.89
2018-11-26T07:14:47.118Z,99488.37
2018-11-26T07:17:19.823Z,99481.45
2018-11-26T07:19:52.428Z,99477.97
2018-11-26T07:22:25.048Z,99488.86
2018-11-26T07:24:57.615Z,99486.69
2018-11-26T07:27:30.173Z,99478.03
2018-11-26T07:30:02.843Z,99483.91
2018-11-26T07:32:35.504Z,99487.94
2018-11-26T07:35:08.735Z,99491.61
2018-11-26T07:37:41.515Z,99496.23
2018-11-26T07:40:17.300Z,99496.99
2018-11-26T07:43:00.417Z,99502.83
2018-11-26T07:45:33.025Z,99501.48
2018-11-26T07:48:07.027Z,99505.64
2018-11-26T07:50:39.712Z,99491.36
2018-11-26T07:53:12.316Z,99510.75
2018-11-26T07:55:44.917Z,99511.66
2018-11-26T07:58:17.613Z,99511.97
2018-11-26T08:00:50.216Z,99518.34
2018-11-26T08:03:22.866Z,99525.20
2018-11-26T08:05:55.487Z,99530.20
2018-11-26T08:08:28.188Z,99537.52
2018-11-26T08:11:00.758Z,99522.27
2018-11-26T08:13:33.379Z,99539.88
2018-11-26T08:16:06.142Z,99539.53
2018-11-26T08:18:38.793Z,99533.36
2018-11-26T08:21:11.400Z,99542.65
2018-11-26T08:23:44.043Z,99536.47
2018-11-26T08:26:16.694Z,99547.34
2018-11-26T08:28:49.330Z,99552.61
2018-11-26T08:31:21.895Z,99542.05
2018-11-26T08:33:54.530Z,99541.17
2018-11-26T08:36:32.667Z,99548.95
2018-11-26T08:39:13.816Z,99544.99
2018-11-26T08:41:52.965Z,99549.03
2018-11-26T08:45:32.847Z,99549.70
2018-11-26T08:48:11.609Z,99552.39
2018-11-26T08:50:44.652Z,99553.52
2018-11-26T08:53:17.298Z,99555.34
2018-11-26T08:55:49.912Z,99556.39
2018-11-26T08:58:22.611Z,99566.05
2018-11-26T09:01:00.942Z,99561.17
2018-11-26T09:03:39.197Z,99570.84
2018-11-26T09:06:11.745Z,99570.43
2018-11-26T09:08:44.408Z,99557.84
2018-11-26T09:11:17.009Z,99571.36
2018-11-26T09:13:49.588Z,99569.42
2018-11-26T09:16:22.163Z,99575.00
2018-11-26T09:18:54.826Z,99571.42
2018-11-26T09:21:27.465Z,99575.20
2018-11-26T09:24:00.084Z,99574.62
2018-11-26T09:26:32.656Z,99579.08
2018-11-26T09:29:05.656Z,99580.42
2018-11-26T09:31:38.344Z,99582.75
2018-11-26T09:34:10.999Z,99587.98
2018-11-26T09:36:43.559Z,99585.38
2018-11-26T09:39:16.181Z,99581.82
2018-11-26T09:41:48.792Z,99594.30
2018-11-26T09:44:21.426Z,99592.03
2018-11-26T09:46:54.031Z,99607.03
2018-11-26T09:49:26.707Z,99597.69
2018-11-26T09:51:59.361Z,99592.25
2018-11-26T09:54:31.967Z,99598.78
2018-11-26T09:57:05.774Z,99604.89
2018-11-26T09:59:38.339Z,99609.26
2018-11-26T10:02:10.923Z,99605.03
2018-11-26T10:04:43.502Z,99608.84
2018-11-26T10:07:16.176Z,99596.53
2018-11-26T10:09:48.749Z,99593.54
2018-11-26T10:12:21.347Z,99597.42
2018-11-26T10:14:53.933Z,99603.57
2018-11-26T10:17:26.498Z,99596.89
2018-11-26T10:19:59.149Z,99598.63
2018-11-26T10:22:31.728Z,99595.45
2018-11-26T10:25:05.982Z,99597.83
2018-11-26T10:27:37.911Z,99599.75
2018-11-26T10:30:12.434Z,99593.86
2018-11-26T10:32:45.720Z,99592.23
2018-11-26T10:35:19.129Z,99590.48
2018-11-26T10:37:51.702Z,99593.80
2018-11-26T10:40:25.551Z,99591.31
2018-11-26T10:42:58.530Z,99593.31
2018-11-26T10:45:30.977Z,99596.83
2018-11-26T10:48:04.112Z,99594.55
2018-11-26T10:50:36.740Z,99593.51
2018-11-26T10:53:09.518Z,99592.98
2018-11-26T10:55:42.174Z,99590.22
2018-11-26T10:58:14.813Z,99589.75
2018-11-26T11:00:53.162Z,99585.80
2018-11-26T11:03:26.153Z,99591.42
2018-11-26T11:05:58.764Z,99591.89
2018-11-26T11:08:31.505Z,99595.02
2018-11-26T11:11:04.115Z,99598.64
2018-11-26T11:13:36.788Z,99596.08
2018-11-26T11:16:09.410Z,99600.03
2018-11-26T11:18:42.013Z,99604.42
2018-11-26T11:21:14.647Z,99601.64
2018-11-26T11:23:47.285Z,99604.06
2018-11-26T11:26:19.920Z,99609.59
2018-11-26T11:28:52.524Z,99601.09
2018-11-26T11:31:25.121Z,99600.88
2018-11-26T11:33:57.670Z,99596.55
2018-11-26T11:36:30.360Z,99605.00
2018-11-26T11:39:03.697Z,99606.02
2018-11-26T11:41:36.624Z,99600.72
2018-11-26T11:44:09.287Z,99604.42
2018-11-26T11:46:41.917Z,99600.36
2018-11-26T11:49:14.676Z,99607.36
2018-11-26T11:51:47.330Z,99603.39
2018-11-26T11:54:20.095Z,99593.77
2018-11-26T11:56:52.885Z,99594.80
2018-11-26T11:59:25.562Z,99593.05
2018-11-26T12:01:58.302Z,99584.11
2018-11-26T12:04:31.034Z,99586.80
2018-11-26T12:07:03.671Z,99591.74
2018-11-26T12:09:36.313Z,99583.58
2018-11-26T12:12:08.931Z,99577.53
2018-11-26T12:14:41.731Z,99579.55
2018-11-26T12:17:14.382Z,99578.38
2018-11-26T12:19:47.053Z,99589.13
2018-11-26T12:22:19.724Z,99584.63
2018-11-26T12:24:52.387Z,99592.98
2018-11-26T12:27:26.065Z,99589.30
2018-11-26T12:29:58.697Z,99594.27
2018-11-26T12:32:31.334Z,99586.77
2018-11-26T12:35:04.419Z,99585.92
2018-11-26T12:37:37.076Z,99591.23
2018-11-26T12:40:11.993Z,99604.16
2018-11-26T12:42:44.610Z,99593.30
2018-11-26T12:45:21.727Z,99591.23
2018-11-26T12:47:54.340Z,99596.09
2018-11-26T12:50:27.030Z,99594.61
2018-11-26T12:52:59.778Z,99593.30
2018-11-26T12:55:32.598Z,99599.66
2018-11-26T12:58:06.972Z,99606.95
2018-11-26T13:00:39.649Z,99593.78
2018-11-26T13:03:13.875Z,99599.55
2018-11-26T13:05:47.478Z,99595.48
2018-11-26T13:08:20.118Z,99599.81
2018-11-26T13:10:52.722Z,99608.41
2018-11-26T13:13:25.383Z,99597.95
2018-11-26T13:15:58.034Z,99606.09
2018-11-26T13:18:30.733Z,99607.61
2018-11-26T13:21:03.354Z,99613.89
2018-11-26T13:23:36.053Z,99607.28
2018-11-26T13:26:08.694Z,99617.38
2018-11-26T13:28:41.369Z,99610.27
2018-11-26T13:31:14.037Z,99614.55
2018-11-26T13:33:47.561Z,99611.34
2018-11-26T13:36:20.241Z,99608.12
2018-11-26T13:38:52.939Z,99618.17
2018-11-26T13:41:25.647Z,99614.07
2018-11-26T13:43:58.287Z,99621.95
2018-11-26T13:46:31.725Z,99619.08
2018-11-26T13:49:04.978Z,99616.87
2018-11-26T13:51:38.891Z,99615.92
2018-11-26T13:54:11.583Z,99613.78
2018-11-26T13:56:44.326Z,99625.22
2018-11-26T13:59:17.034Z,99614.72
2018-11-26T14:01:49.773Z,99624.23
2018-11-26T14:04:22.485Z,99618.28
2018-11-26T14:06:55.294Z,99617.05
2018-11-26T14:09:27.997Z,99616.87
2018-11-26T14:12:00.700Z,99614.39
2018-11-26T14:14:33.418Z,99614.79
2018-11-26T14:17:06.190Z,99617.12
2018-11-26T14:19:39.025Z,99612.03
2018-11-26T14:22:11.652Z,99610.00
2018-11-26T14:24:44.361Z,99616.28
2018-11-26T14:27:17.049Z,99621.50
2018-11-26T14:29:49.774Z,99623.31
2018-11-26T14:32:22.382Z,99619.48
2018-11-26T14:34:55.075Z,99623.88
2018-11-26T14:37:28.617Z,99632.51
2018-11-26T14:40:01.211Z,99629.03
2018-11-26T14:42:33.868Z,99634.47
2018-11-26T14:45:08.912Z,99634.33
2018-11-26T14:47:41.811Z,99637.63
2018-11-26T14:50:15.607Z,99636.80
2018-11-26T14:52:49.119Z,99635.89
2018-11-26T14:55:25.062Z,99640.53
2018-11-26T14:57:57.854Z,99635.81
2018-11-26T15:00:30.502Z,99638.36
2018-11-26T15:03:03.342Z,99651.56
2018-11-26T15:05:36.015Z,99644.78
2018-11-26T15:08:09.343Z,99656.17
2018-11-26T15:10:42.055Z,99651.09
2018-11-26T15:13:14.670Z,99652.22
2018-11-26T15:15:47.374Z,99652.22
2018-11-26T15:18:20.056Z,99656.79
2018-11-26T15:20:52.701Z,99656.97
2018-11-26T15:23:25.331Z,99658.09
2018-11-26T15:25:58.671Z,99662.83
2018-11-26T15:28:31.279Z,99668.66
2018-11-26T15:31:03.892Z,99663.92
2018-11-26T15:33:36.606Z,99665.98
2018-11-26T15:36:09.295Z,99661.25
2018-11-26T15:38:41.927Z,99668.19
2018-11-26T15:41:14.577Z,99674.10
2018-11-26T15:43:47.322Z,99671.99
2018-11-26T15:46:20.786Z,99675.23
2018-11-26T15:48:53.463Z,99672.54
2018-11-26T15:51:26.122Z,99673.66
2018-11-26T15:53:59.474Z,99677.98
2018-11-26T15:56:32.219Z,99681.87
2018-11-26T15:59:05.004Z,99685.25
2018-11-26T16:01:37.659Z,99685.89
2018-11-26T16:04:10.378Z,99685.02
2018-11-26T16:06:43.158Z,99683.36
2018-11-26T16:09:15.867Z,99683.50
2018-11-26T16:11:48.611Z,99685.80
2018-11-26T16:14:21.220Z,99687.06
2018-11-26T16:16:53.855Z,99690.85
2018-11-26T16:19:27.176Z,99696.48
2018-11-26T16:21:59.858Z,99698.69
2018-11-26T16:24:32.581Z,99704.13
2018-11-26T16:27:05.721Z,99699.45
2018-11-26T16:29:38.482Z,99704.34
2018-11-26T16:32:11.247Z,99715.03
2018-11-26T16:34:43.947Z,99718.25
2018-11-26T16:37:16.762Z,99712.02
2018-11-26T16:39:49.478Z,99710.83
2018-11-26T16:42:22.111Z,99712.81
2018-11-26T16:44:54.799Z,99715.81
2018-11-26T16:47:27.532Z,99723.48
2018-11-26T16:50:00.213Z,99725.44
2018-11-26T16:52:32.857Z,99725.92
2018-11-26T16:55:10.668Z,99731.45
2018-11-26T16:57:43.420Z,99730.80
2018-11-26T17:00:19.024Z,99732.95
2018-11-26T17:02:53.475Z,99722.20
2018-11-26T17:05:35.715Z,99727.17
2018-11-26T17:08:10.125Z,99729.23
2018-11-26T17:10:43.219Z,99730.73
2018-11-26T17:13:15.958Z,99735.09
2018-11-26T17:15:48.644Z,99731.19
2018-11-26T17:18:21.351Z,99737.20
2018-11-26T17:20:53.970Z,99741.39
2018-11-26T17:23:27.151Z,99740.30
2018-11-26T17:25:59.892Z,99745.03
2018-11-26T17:28:33.348Z,99752.86
2018-11-26T17:31:06.602Z,99749.59
2018-11-26T17:33:39.341Z,99757.59
2018-11-26T17:36:12.086Z,99754.67
2018-11-26T17:38:44.827Z,99759.95
2018-11-26T17:41:18.538Z,99760.81
2018-11-26T17:43:51.270Z,99756.09
2018-11-26T17:46:23.939Z,99763.44
2018-11-26T17:48:56.703Z,99763.82
2018-11-26T17:51:29.268Z,99765.70
2018-11-26T17:54:01.938Z,99770.05
2018-11-26T17:56:35.690Z,99774.40
2018-11-26T17:59:08.489Z,99778.42
2018-11-26T18:01:43.666Z,99779.00
2018-11-26T18:04:16.513Z,99790.98
2018-11-26T18:06:49.956Z,99789.19
2018-11-26T18:09:22.964Z,99790.83
2018-11-26T18:11:56.336Z,99790.19
2018-11-26T18:14:31.275Z,99795.43
2018-11-26T18:17:04.152Z,99793.35
2018-11-26T18:19:36.976Z,99795.17
2018-11-26T18:22:10.416Z,99801.89
2018-11-26T18:24:43.092Z,99802.78
2018-11-26T18:27:15.824Z,99803.55
2018-11-26T18:29:48.570Z,99809.66
2018-11-26T18:32:21.657Z,99802.20
2018-11-26T18:34:54.465Z,99810.52
2018-11-26T18:37:27.341Z,99815.56
2018-11-26T18:40:00.037Z,99810.03
2018-11-26T18:42:32.796Z,99812.18
2018-11-26T18:45:07.592Z,99819.92
2018-11-26T18:47:40.341Z,99816.75
2018-11-26T18:50:15.871Z,99816.27
2018-11-26T18:52:49.453Z,99817.87
2018-11-26T18:55:22.199Z,99828.13
2018-11-26T18:57:55.019Z,99824.64
2018-11-26T19:00:29.626Z,99827.27
2018-11-26T19:03:02.300Z,99822.34
2018-11-26T19:05:35.190Z,99828.84
2018-11-26T19:08:08.006Z,99823.40
2018-11-26T19:10:40.806Z,99832.70
2018-11-26T19:13:20.115Z,99830.66
2018-11-26T19:15:59.441Z,99837.69
2018-11-26T19:18:33.061Z,99830.66
2018-11-26T19:21:06.316Z,99838.01
2018-11-26T19:23:39.084Z,99846.06
2018-11-26T19:26:11.775Z,99843.45
2018-11-26T19:28:44.416Z,99848.59
2018-11-26T19:31:17.117Z,99844.25
2018-11-26T19:33:49.789Z,99844.02
2018-11-26T19:36:22.483Z,99850.64
2018-11-26T19:38:55.218Z,99847.89
2018-11-26T19:41:27.883Z,99851.66
2018-11-26T19:44:00.624Z,99848.91
2018-11-26T19:46:33.262Z,99851.85
2018-11-26T19:49:06.002Z,99851.70
2018-11-26T19:51:38.772Z,99849.01
2018-11-26T19:54:12.102Z,99857.77
2018-11-26T19:56:44.725Z,99864.39
2018-11-26T19:59:17.521Z,99860.91
2018-11-26T20:01:50.246Z,99866.53
2018-11-26T20:04:30.543Z,99872.39
2018-11-26T20:07:03.258Z,99875.84
2018-11-26T20:09:35.995Z,99879.04
2018-11-26T20:12:08.659Z,99881.47
2018-11-26T20:14:41.454Z,99887.41
2018-11-26T20:17:14.053Z,99889.46
2018-11-26T20:19:46.755Z,99883.41
2018-11-26T20:22:19.857Z,99887.00
2018-11-26T20:24:52.284Z,99894.95
2018-11-26T20:27:25.011Z,99892.44
2018-11-26T20:29:57.754Z,99894.64
2018-11-26T20:32:30.484Z,99902.96
2018-11-26T20:36:33.830Z,99906.77
2018-11-26T20:39:08.720Z,99903.28
2018-11-26T20:41:41.405Z,99905.80
2018-11-26T20:44:14.098Z,99909.52
2018-11-26T20:46:49.125Z,99913.88
2018-11-26T20:49:19.664Z,99917.03
2018-11-26T20:51:52.296Z,99916.17
2018-11-26T20:54:25.049Z,99920.52
2018-11-26T20:56:57.773Z,99924.77
2018-11-26T20:59:30.499Z,99922.73
2018-11-26T21:02:03.260Z,99925.41
2018-11-26T21:04:36.060Z,99929.12
2018-11-26T21:07:08.730Z,99928.64
2018-11-26T21:09:41.429Z,99931.05
2018-11-26T21:12:14.045Z,99927.02
2018-11-26T21:14:46.707Z,99928.36
2018-11-26T21:17:19.356Z,99932.13
2018-11-26T21:19:52.101Z,99928.36
2018-11-26T21:22:24.725Z,99935.30
2018-11-26T21:24:57.505Z,99938.63
2018-11-26T21:27:30.256Z,99939.10
2018-11-26T21:30:03.045Z,99935.45
2018-11-26T21:32:35.856Z,99926.66
2018-11-26T21:35:10.622Z,99933.09
2018-11-26T21:37:44.626Z,99932.77
2018-11-26T21:40:20.673Z,99932.61
2018-11-26T21:42:53.378Z,99935.20
2018-11-26T21:45:30.178Z,99933.15
2018-11-26T21:48:02.932Z,99942.48
2018-11-26T21:50:35.607Z,99938.19
2018-11-26T21:53:08.339Z,99934.97
2018-11-26T21:55:40.984Z,99927.63
2018-11-26T21:58:13.630Z,99931.97
2018-11-26T22:00:47.250Z,99932.39
2018-11-26T22:03:19.928Z,99936.96
2018-11-26T22:05:52.674Z,99938.04
2018-11-26T22:08:25.253Z,99945.73
2018-11-26T22:10:57.935Z,99950.23
